createdAt,value
2022-08-10T00:00:12.323Z,25.84
2022-08-10T00:02:39.000Z,25.78
2022-08-10T00:05:06.213Z,25.79
2022-08-10T00:07:32.937Z,25.79
2022-08-10T00:09:59.636Z,25.81
2022-08-10T00:12:53.669Z,25.79
2022-08-10T00:15:52.685Z,25.79
2022-08-10T00:18:02.271Z,25.74
2022-08-10T00:20:29.047Z,25.74
2022-08-10T00:22:57.794Z,25.73
2022-08-10T00:25:24.931Z,25.75
2022-08-10T00:28:03.139Z,25.75
2022-08-10T00:30:31.116Z,25.71
2022-08-10T00:33:00.923Z,25.68
2022-08-10T00:35:27.995Z,25.69
2022-08-10T00:37:57.923Z,25.68
2022-08-10T00:40:35.158Z,25.66
2022-08-10T00:43:08.031Z,25.61
2022-08-10T00:45:35.834Z,25.58
2022-08-10T00:48:02.723Z,25.56
2022-08-10T00:50:29.726Z,25.58
2022-08-10T00:52:56.706Z,25.58
2022-08-10T00:55:23.466Z,25.59
2022-08-10T00:57:54.866Z,25.59
2022-08-10T01:00:21.783Z,25.57
2022-08-10T01:02:48.525Z,25.50
2022-08-10T01:05:15.436Z,25.47
2022-08-10T01:08:10.470Z,25.49
2022-08-10T01:10:52.557Z,25.45
2022-08-10T01:13:47.842Z,25.45
2022-08-10T01:16:45.757Z,25.44
2022-08-10T01:19:40.663Z,25.42
2022-08-10T01:22:19.453Z,25.33
2022-08-10T01:25:09.385Z,25.26
2022-08-10T01:28:00.446Z,25.20
2022-08-10T01:30:31.710Z,25.18
2022-08-10T01:33:07.987Z,25.18
2022-08-10T01:35:41.391Z,25.09
2022-08-10T01:38:20.608Z,25.04
2022-08-10T01:40:53.828Z,24.99
2022-08-10T01:43:21.357Z,24.95
2022-08-10T01:45:53.391Z,24.92
2022-08-10T01:48:32.241Z,24.90
2022-08-10T01:50:59.406Z,24.88
2022-08-10T01:53:39.996Z,24.87
2022-08-10T01:56:14.103Z,24.77
2022-08-10T01:58:42.429Z,24.76
2022-08-10T02:01:16.995Z,24.74
2022-08-10T02:04:03.862Z,24.67
2022-08-10T02:06:42.041Z,24.54
2022-08-10T02:09:11.683Z,24.51
2022-08-10T02:12:05.702Z,24.46
2022-08-10T02:14:33.584Z,24.41
2022-08-10T02:17:09.353Z,24.44
2022-08-10T02:20:01.653Z,24.41
2022-08-10T02:22:37.854Z,24.39
2022-08-10T02:25:07.985Z,24.39
2022-08-10T02:27:36.031Z,24.39
2022-08-10T02:30:04.969Z,24.36
2022-08-10T02:32:52.854Z,24.37
2022-08-10T02:35:22.214Z,24.31
2022-08-10T02:37:53.410Z,24.27
2022-08-10T02:45:01.476Z,24.24
2022-08-10T02:45:24.708Z,24.16
2022-08-10T02:46:13.135Z,24.13
2022-08-10T02:48:46.044Z,24.10
2022-08-10T02:51:20.048Z,24.08
2022-08-10T02:54:13.753Z,24.04
2022-08-10T02:56:46.408Z,24.01
2022-08-10T02:59:40.151Z,23.96
2022-08-10T03:02:10.608Z,23.87
2022-08-10T03:04:55.602Z,23.82
2022-08-10T03:07:43.598Z,23.74
2022-08-10T03:10:16.662Z,23.68
2022-08-10T03:12:45.632Z,23.65
2022-08-10T03:15:15.941Z,23.60
2022-08-10T03:17:58.248Z,23.56
2022-08-10T03:20:36.774Z,23.54
2022-08-10T03:23:11.305Z,23.49
2022-08-10T03:25:39.113Z,23.49
2022-08-10T03:28:07.239Z,23.51
2022-08-10T03:30:35.163Z,23.46
2022-08-10T03:33:07.405Z,23.46
2022-08-10T03:35:34.706Z,23.38
2022-08-10T03:38:01.800Z,23.32
2022-08-10T03:40:45.465Z,23.27
2022-08-10T03:43:21.252Z,23.22
2022-08-10T03:45:58.181Z,23.21
2022-08-10T03:48:32.139Z,23.20
2022-08-10T03:51:12.953Z,23.20
2022-08-10T03:54:05.093Z,23.19
2022-08-10T03:56:31.926Z,23.15
2022-08-10T03:59:00.256Z,23.13
2022-08-10T04:02:45.388Z,23.13
2022-08-10T04:04:19.286Z,23.12
2022-08-10T04:06:54.522Z,23.06
2022-08-10T04:09:23.522Z,23.07
2022-08-10T04:11:50.338Z,23.08
2022-08-10T04:14:47.098Z,23.08
2022-08-10T04:17:03.779Z,23.02
2022-08-10T04:19:43.214Z,23.01
2022-08-10T04:22:20.939Z,22.97
2022-08-10T04:24:51.560Z,22.95
2022-08-10T04:27:18.278Z,22.92
2022-08-10T04:29:45.349Z,22.89
2022-08-10T04:32:15.861Z,22.89
2022-08-10T04:34:44.846Z,22.87
2022-08-10T04:37:13.708Z,22.88
2022-08-10T04:39:40.698Z,22.93
2022-08-10T04:42:07.709Z,22.95
2022-08-10T04:44:34.606Z,22.96
2022-08-10T04:47:01.293Z,23.00
2022-08-10T04:49:52.161Z,22.98
2022-08-10T04:52:14.914Z,23.01
2022-08-10T04:54:41.747Z,23.03
2022-08-10T04:57:08.877Z,23.00
2022-08-10T04:59:35.834Z,23.10
2022-08-10T05:02:28.218Z,23.16
2022-08-10T05:04:49.356Z,23.21
2022-08-10T05:07:18.447Z,23.27
2022-08-10T05:10:01.132Z,23.30
2022-08-10T05:12:39.279Z,23.31
2022-08-10T05:15:11.697Z,23.26
2022-08-10T05:17:39.700Z,23.28
2022-08-10T05:20:09.149Z,23.29
2022-08-10T05:22:38.179Z,23.30
2022-08-10T05:25:06.939Z,23.33
2022-08-10T05:27:34.126Z,23.36
2022-08-10T05:30:02.846Z,23.41
2022-08-10T05:32:56.462Z,23.41
2022-08-10T05:35:21.935Z,23.42
2022-08-10T05:38:11.818Z,23.46
2022-08-10T05:40:39.312Z,23.43
2022-08-10T05:43:06.958Z,23.43
2022-08-10T05:45:33.978Z,23.51
2022-08-10T05:48:54.256Z,23.55
2022-08-10T05:51:09.289Z,23.61
2022-08-10T05:53:59.688Z,23.63
2022-08-10T05:56:25.987Z,23.68
2022-08-10T05:58:52.889Z,23.75
2022-08-10T06:01:24.899Z,23.76
2022-08-10T06:03:58.443Z,23.81
2022-08-10T06:06:27.773Z,23.81
2022-08-10T06:08:56.574Z,23.85
2022-08-10T06:12:28.685Z,23.91
2022-08-10T06:14:31.871Z,23.95
2022-08-10T06:16:58.730Z,23.96
2022-08-10T06:19:26.470Z,24.06
2022-08-10T06:22:00.586Z,24.37
2022-08-10T06:24:31.167Z,24.57
2022-08-10T06:26:59.369Z,24.75
2022-08-10T06:29:29.618Z,24.79
2022-08-10T06:31:57.349Z,24.90
2022-08-10T06:34:32.188Z,24.95
2022-08-10T06:37:01.635Z,24.86
2022-08-10T06:39:36.586Z,24.71
2022-08-10T06:42:15.802Z,24.58
2022-08-10T06:45:01.953Z,24.58
2022-08-10T06:47:35.331Z,24.77
2022-08-10T06:50:10.535Z,24.91
2022-08-10T06:52:40.113Z,24.86
2022-08-10T06:55:12.471Z,24.81
2022-08-10T06:57:44.661Z,24.80
2022-08-10T07:00:34.200Z,24.85
2022-08-10T07:03:07.231Z,24.94
2022-08-10T07:05:40.518Z,25.25
2022-08-10T07:08:11.097Z,25.37
2022-08-10T07:10:45.703Z,25.35
2022-08-10T07:13:16.144Z,25.37
2022-08-10T07:16:03.956Z,25.37
2022-08-10T07:18:32.501Z,25.38
2022-08-10T07:21:02.004Z,25.41
2022-08-10T07:23:57.350Z,25.37
2022-08-10T07:26:17.857Z,25.36
2022-08-10T07:28:48.080Z,25.57
2022-08-10T07:31:54.861Z,25.92
2022-08-10T07:34:09.383Z,26.00
2022-08-10T07:36:37.889Z,26.05
2022-08-10T07:39:05.975Z,26.03
2022-08-10T07:41:34.824Z,26.07
2022-08-10T07:44:04.328Z,26.14
2022-08-10T07:46:33.425Z,26.13
2022-08-10T07:49:16.771Z,26.15
2022-08-10T07:51:54.565Z,26.28
2022-08-10T07:54:24.365Z,26.41
2022-08-10T07:56:53.772Z,26.49
2022-08-10T07:59:29.506Z,26.55
2022-08-10T08:01:58.199Z,26.60
2022-08-10T08:04:26.031Z,26.63
2022-08-10T08:06:53.871Z,26.64
2022-08-10T08:09:22.089Z,26.70
2022-08-10T08:11:50.725Z,26.86
2022-08-10T08:14:22.196Z,26.89
2022-08-10T08:16:52.127Z,28.06
2022-08-10T08:19:28.228Z,32.38
2022-08-10T08:24:10.887Z,36.78
2022-08-10T08:24:52.074Z,39.64
2022-08-10T08:27:20.302Z,40.55
2022-08-10T08:29:49.432Z,41.51
2022-08-10T08:32:17.621Z,43.66
2022-08-10T08:34:46.167Z,44.01
2022-08-10T08:38:28.868Z,42.95
2022-08-10T08:40:33.462Z,44.42
2022-08-10T08:43:21.423Z,45.97
2022-08-10T08:46:28.417Z,45.82
2022-08-10T08:49:08.647Z,45.32
2022-08-10T08:52:07.903Z,46.22
2022-08-10T08:56:03.842Z,45.87
2022-08-10T08:58:26.400Z,46.77
2022-08-10T09:01:13.458Z,47.71
2022-08-10T09:03:43.071Z,49.10
2022-08-10T09:06:47.073Z,48.34
2022-08-10T09:09:41.722Z,49.03
2022-08-10T09:12:34.026Z,48.52
2022-08-10T09:15:08.343Z,48.27
2022-08-10T09:18:01.493Z,48.68
2022-08-10T09:20:46.479Z,50.01
2022-08-10T09:24:05.325Z,50.76
2022-08-10T09:26:22.059Z,51.46
2022-08-10T09:29:12.840Z,50.06
2022-08-10T09:33:05.330Z,49.07
2022-08-10T09:36:24.404Z,46.77
2022-08-10T09:38:10.501Z,47.72
2022-08-10T09:41:00.368Z,48.98
2022-08-10T09:43:38.671Z,49.36
2022-08-10T09:46:12.024Z,48.10
2022-08-10T09:48:54.648Z,48.47
2022-08-10T09:51:47.378Z,49.02
2022-08-10T09:54:52.106Z,49.91
2022-08-10T09:57:50.835Z,50.50
2022-08-10T10:00:24.835Z,52.22
2022-08-10T10:03:29.058Z,51.24
2022-08-10T10:06:19.111Z,51.82
2022-08-10T10:09:10.156Z,51.51
2022-08-10T10:12:09.703Z,50.37
2022-08-10T10:15:24.202Z,47.92
2022-08-10T10:18:07.731Z,49.94
2022-08-10T10:20:53.714Z,50.94
2022-08-10T10:23:29.179Z,51.15
2022-08-10T10:26:18.480Z,51.09
2022-08-10T10:29:30.603Z,49.71
2022-08-10T10:31:57.399Z,50.48
2022-08-10T10:34:27.127Z,51.23
2022-08-10T10:36:54.392Z,51.39
2022-08-10T10:39:25.855Z,52.98
2022-08-10T10:42:05.101Z,53.67
2022-08-10T10:44:42.085Z,54.10
2022-08-10T10:47:35.033Z,54.01
2022-08-10T10:50:05.922Z,54.40
2022-08-10T10:52:43.131Z,55.06
2022-08-10T10:55:23.196Z,54.66
2022-08-10T10:58:04.939Z,53.65
2022-08-10T11:00:42.215Z,54.26
2022-08-10T11:03:21.429Z,53.67
2022-08-10T11:06:09.660Z,54.05
2022-08-10T11:08:38.678Z,54.86
2022-08-10T11:12:00.459Z,54.52
2022-08-10T11:14:29.191Z,55.34
2022-08-10T11:17:08.578Z,55.52
2022-08-10T11:20:05.013Z,55.35
2022-08-10T11:23:05.018Z,54.72
2022-08-10T11:25:36.322Z,54.51
2022-08-10T11:28:22.199Z,53.58
2022-08-10T11:30:54.935Z,53.52
2022-08-10T11:33:33.700Z,53.10
2022-08-10T11:36:40.433Z,52.07
2022-08-10T11:39:24.861Z,51.91
2022-08-10T11:42:08.930Z,51.52
2022-08-10T11:45:00.075Z,51.29
2022-08-10T11:47:46.453Z,52.93
2022-08-10T11:50:22.723Z,54.04
2022-08-10T11:53:00.109Z,53.72
2022-08-10T11:55:31.287Z,53.88
2022-08-10T11:58:29.808Z,53.92
2022-08-10T12:00:59.644Z,53.46
2022-08-10T12:03:32.650Z,52.36
2022-08-10T12:06:04.384Z,52.02
2022-08-10T12:10:11.623Z,52.20
2022-08-10T12:11:24.490Z,51.71
2022-08-10T12:14:22.524Z,51.56
2022-08-10T12:16:55.167Z,51.29
2022-08-10T12:20:01.689Z,49.54
2022-08-10T12:22:30.957Z,45.58
2022-08-10T12:25:03.217Z,41.90
2022-08-10T12:27:38.677Z,39.97
2022-08-10T12:30:08.893Z,39.16
2022-08-10T12:32:56.653Z,38.75
2022-08-10T12:36:15.002Z,37.82
2022-08-10T12:38:49.547Z,37.31
2022-08-10T12:41:43.904Z,37.00
2022-08-10T12:44:41.076Z,37.07
2022-08-10T12:47:32.505Z,36.50
2022-08-10T12:50:30.988Z,36.53
2022-08-10T12:53:15.123Z,36.60
2022-08-10T12:55:43.993Z,36.10
2022-08-10T12:59:00.304Z,35.69
2022-08-10T13:01:16.087Z,35.63
2022-08-10T13:04:23.258Z,35.44
2022-08-10T13:06:36.191Z,35.41
2022-08-10T13:09:09.415Z,35.28
2022-08-10T13:12:38.366Z,35.21
2022-08-10T13:15:28.274Z,35.00
2022-08-10T13:18:03.711Z,34.88
2022-08-10T13:20:35.395Z,35.09
2022-08-10T13:23:11.336Z,35.03
2022-08-10T13:25:40.529Z,35.12
2022-08-10T13:28:35.453Z,35.08
2022-08-10T13:31:03.359Z,34.96
2022-08-10T13:34:40.999Z,34.62
2022-08-10T13:36:28.765Z,34.55
2022-08-10T13:38:57.325Z,34.42
2022-08-10T13:41:39.169Z,34.83
2022-08-10T13:44:08.240Z,35.21
2022-08-10T13:46:40.102Z,35.11
2022-08-10T13:49:09.936Z,34.79
2022-08-10T13:51:54.305Z,34.73
2022-08-10T13:54:36.987Z,34.60
2022-08-10T13:57:07.463Z,34.28
2022-08-10T14:00:35.009Z,34.41
2022-08-10T14:02:28.670Z,34.37
2022-08-10T14:04:57.819Z,34.46
2022-08-10T14:07:26.690Z,34.61
2022-08-10T14:09:59.356Z,34.64
2022-08-10T14:12:33.518Z,34.70
2022-08-10T14:15:03.131Z,34.80
2022-08-10T14:17:31.429Z,34.96
2022-08-10T14:20:00.188Z,34.66
2022-08-10T14:22:35.748Z,34.32
2022-08-10T14:25:11.413Z,34.49
2022-08-10T14:28:02.855Z,34.58
2022-08-10T14:30:33.065Z,34.37
2022-08-10T14:33:04.498Z,34.64
2022-08-10T14:36:19.050Z,34.95
2022-08-10T14:38:28.123Z,35.31
2022-08-10T14:40:58.783Z,35.19
2022-08-10T14:43:29.213Z,35.20
2022-08-10T14:46:05.817Z,34.84
2022-08-10T14:48:39.799Z,34.20
2022-08-10T14:51:09.277Z,33.83
2022-08-10T14:53:38.322Z,33.75
2022-08-10T14:56:09.359Z,33.91
2022-08-10T14:59:05.648Z,34.28
2022-08-10T15:02:01.315Z,34.19
2022-08-10T15:04:24.787Z,33.91
2022-08-10T15:06:57.530Z,33.80
2022-08-10T15:09:28.084Z,33.80
2022-08-10T15:12:19.530Z,33.67
2022-08-10T15:14:58.068Z,33.39
2022-08-10T15:17:29.863Z,33.46
2022-08-10T15:20:13.457Z,33.86
2022-08-10T15:22:50.189Z,34.14
2022-08-10T15:25:25.084Z,34.15
2022-08-10T15:28:10.336Z,33.92
2022-08-10T15:31:00.280Z,33.72
2022-08-10T15:33:57.580Z,33.79
2022-08-10T15:37:36.119Z,33.98
2022-08-10T15:40:25.914Z,33.94
2022-08-10T15:42:34.145Z,33.88
2022-08-10T15:45:01.231Z,33.78
2022-08-10T15:47:46.237Z,33.41
2022-08-10T15:50:23.501Z,33.19
2022-08-10T15:53:02.095Z,33.12
2022-08-10T15:55:46.892Z,33.31
2022-08-10T15:58:38.783Z,33.23
2022-08-10T16:02:14.907Z,33.38
2022-08-10T16:04:19.875Z,33.39
2022-08-10T16:06:58.601Z,33.28
2022-08-10T16:10:24.577Z,33.22
2022-08-10T16:12:32.594Z,33.28
2022-08-10T16:15:07.927Z,33.28
2022-08-10T16:17:55.269Z,33.21
2022-08-10T16:20:31.557Z,33.01
2022-08-10T16:23:02.258Z,32.95
2022-08-10T16:25:44.572Z,32.98
2022-08-10T16:28:23.326Z,33.00
2022-08-10T16:30:55.839Z,33.00
2022-08-10T16:33:27.582Z,32.87
2022-08-10T16:36:17.047Z,32.73
2022-08-10T16:38:45.805Z,32.69
2022-08-10T16:42:02.094Z,32.61
2022-08-10T16:44:02.267Z,32.43
2022-08-10T16:46:30.238Z,32.47
2022-08-10T16:48:59.367Z,32.52
2022-08-10T16:51:26.404Z,32.42
2022-08-10T16:53:54.052Z,32.40
2022-08-10T16:56:34.217Z,32.23
2022-08-10T16:59:20.804Z,32.23
2022-08-10T17:01:53.669Z,32.24
2022-08-10T17:04:22.650Z,32.23
2022-08-10T17:06:56.427Z,32.22
2022-08-10T17:09:30.114Z,31.95
2022-08-10T17:11:59.355Z,31.87
2022-08-10T17:14:28.901Z,31.85
2022-08-10T17:17:06.544Z,31.92
2022-08-10T17:19:45.119Z,31.98
2022-08-10T17:22:17.929Z,31.95
2022-08-10T17:24:49.974Z,31.83
2022-08-10T17:28:04.481Z,31.66
2022-08-10T17:30:15.844Z,31.58
2022-08-10T17:32:57.156Z,31.50
2022-08-10T17:35:28.713Z,31.45
2022-08-10T17:38:12.583Z,31.25
2022-08-10T17:40:55.160Z,31.18
2022-08-10T17:43:57.768Z,31.16
2022-08-10T17:46:13.254Z,31.11
2022-08-10T17:48:44.363Z,31.14
2022-08-10T17:51:13.893Z,31.13
2022-08-10T17:54:00.487Z,31.14
2022-08-10T17:56:31.472Z,31.03
2022-08-10T17:59:02.620Z,31.02
2022-08-10T18:01:41.378Z,30.88
2022-08-10T18:04:22.401Z,30.87
2022-08-10T18:06:54.530Z,30.91
2022-08-10T18:09:47.119Z,30.84
2022-08-10T18:12:19.109Z,30.78
2022-08-10T18:14:50.096Z,30.72
2022-08-10T18:17:23.100Z,30.73
2022-08-10T18:20:00.405Z,30.71
2022-08-10T18:22:29.066Z,30.64
2022-08-10T18:24:58.894Z,30.55
2022-08-10T18:28:04.327Z,30.42
2022-08-10T18:30:19.171Z,30.38
2022-08-10T18:32:50.170Z,30.37
2022-08-10T18:35:18.798Z,30.30
2022-08-10T18:37:50.645Z,30.22
2022-08-10T18:40:18.689Z,30.19
2022-08-10T18:42:51.052Z,30.14
2022-08-10T18:45:33.504Z,30.15
2022-08-10T18:48:16.301Z,30.11
2022-08-10T18:50:49.706Z,30.06
2022-08-10T18:53:33.197Z,30.02
2022-08-10T18:56:28.328Z,29.99
2022-08-10T18:59:05.176Z,29.96
2022-08-10T19:01:55.619Z,29.93
2022-08-10T19:04:40.088Z,29.80
2022-08-10T19:07:34.853Z,29.70
2022-08-10T19:10:26.756Z,29.64
2022-08-10T19:13:07.123Z,29.57
2022-08-10T19:15:51.789Z,29.54
2022-08-10T19:18:37.199Z,29.50
2022-08-10T19:21:13.131Z,29.45
2022-08-10T19:23:59.111Z,29.42
2022-08-10T19:26:45.029Z,29.35
2022-08-10T19:30:10.270Z,29.32
2022-08-10T19:32:36.171Z,29.22
2022-08-10T19:35:29.466Z,29.20
2022-08-10T19:38:24.905Z,29.19
2022-08-10T19:41:09.331Z,29.12
2022-08-10T19:44:00.844Z,29.13
2022-08-10T19:46:47.298Z,29.05
2022-08-10T19:49:41.452Z,29.01
2022-08-10T19:52:25.536Z,29.00
2022-08-10T19:55:21.623Z,28.97
2022-08-10T19:58:07.094Z,28.93
2022-08-10T20:00:56.065Z,28.92
2022-08-10T20:03:52.776Z,28.89
2022-08-10T20:06:39.856Z,28.80
2022-08-10T20:09:30.154Z,28.78
2022-08-10T20:12:02.149Z,28.74
2022-08-10T20:15:07.422Z,28.71
2022-08-10T20:17:51.549Z,28.51
2022-08-10T20:20:30.672Z,28.38
2022-08-10T20:23:22.932Z,28.37
2022-08-10T20:25:57.742Z,28.34
2022-08-10T20:29:16.482Z,28.27
2022-08-10T20:32:17.584Z,28.12
2022-08-10T20:35:04.594Z,28.04
2022-08-10T20:37:41.187Z,27.91
2022-08-10T20:40:46.961Z,27.82
2022-08-10T20:43:17.113Z,27.83
2022-08-10T20:46:07.831Z,27.84
2022-08-10T20:48:40.903Z,27.78
2022-08-10T20:51:13.957Z,27.60
2022-08-10T20:53:49.499Z,27.53
2022-08-10T20:56:48.294Z,27.43
2022-08-10T20:59:23.502Z,27.31
2022-08-10T21:02:28.123Z,27.30
2022-08-10T21:05:19.168Z,27.31
2022-08-10T21:08:03.674Z,27.37
2022-08-10T21:11:02.302Z,27.43
2022-08-10T21:14:01.725Z,27.41
2022-08-10T21:16:28.320Z,27.33
2022-08-10T21:19:18.496Z,27.27
2022-08-10T21:22:15.728Z,27.26
2022-08-10T21:24:52.221Z,27.07
2022-08-10T21:27:56.491Z,27.02
2022-08-10T21:31:00.146Z,26.91
2022-08-10T21:33:38.563Z,26.80
2022-08-10T21:36:37.518Z,26.84
2022-08-10T21:39:42.966Z,26.87
2022-08-10T21:42:47.334Z,26.84
2022-08-10T21:46:04.249Z,26.77
2022-08-10T21:49:06.750Z,26.65
2022-08-10T21:52:04.169Z,26.54
2022-08-10T21:55:06.354Z,26.57
2022-08-10T21:58:16.221Z,26.66
2022-08-10T22:01:13.072Z,26.67
2022-08-10T22:04:02.147Z,26.62
2022-08-10T22:06:53.019Z,26.63
2022-08-10T22:09:45.943Z,26.60
2022-08-10T22:12:34.233Z,26.59
2022-08-10T22:16:03.323Z,26.59
2022-08-10T22:18:58.771Z,26.49
2022-08-10T22:21:59.216Z,26.44
2022-08-10T22:25:05.685Z,26.44
2022-08-10T22:28:02.931Z,26.43
2022-08-10T22:31:28.681Z,26.43
2022-08-10T22:34:38.248Z,26.38
2022-08-10T22:37:40.488Z,26.32
2022-08-10T22:40:32.242Z,26.31
2022-08-10T22:43:35.523Z,26.29
2022-08-10T22:46:25.605Z,26.24
2022-08-10T22:49:01.489Z,26.23
2022-08-10T22:51:49.918Z,26.23
2022-08-10T22:54:44.480Z,26.21
2022-08-10T22:57:34.188Z,26.18
2022-08-10T23:00:16.245Z,26.17
2022-08-10T23:02:57.396Z,26.11
2022-08-10T23:05:56.172Z,26.08
2022-08-10T23:08:31.246Z,26.03
2022-08-10T23:11:05.990Z,26.04
2022-08-10T23:13:37.817Z,26.04
2022-08-10T23:16:27.293Z,26.01
2022-08-10T23:19:11.034Z,25.95
2022-08-10T23:21:47.791Z,25.86
2022-08-10T23:24:35.237Z,25.85
2022-08-10T23:27:10.353Z,25.84
2022-08-10T23:30:03.539Z,25.85
2022-08-10T23:32:33.335Z,25.83
2022-08-10T23:36:30.313Z,25.83
2022-08-10T23:37:58.139Z,25.76
2022-08-10T23:40:26.738Z,25.70
2022-08-10T23:42:55.657Z,25.71
2022-08-10T23:45:25.167Z,25.71
2022-08-10T23:47:53.906Z,25.64
2022-08-10T23:50:23.335Z,25.56
2022-08-10T23:52:52.702Z,25.59
2022-08-10T23:55:24.150Z,25.64
2022-08-10T23:58:05.089Z,25.66
